createdAt,value
2019-04-10T00:02:09.202Z,7.80
2019-04-10T00:04:37.776Z,8.30
2019-04-10T00:07:12.698Z,8.03
2019-04-10T00:09:36.687Z,8.10
2019-04-10T00:12:05.616Z,8.40
2019-04-10T00:14:34.540Z,8.57
2019-04-10T00:17:03.227Z,8.77
2019-04-10T00:19:32.869Z,9.30
2019-04-10T00:22:02.741Z,8.37
2019-04-10T00:24:32.305Z,8.60
2019-04-10T00:27:01.834Z,8.53
2019-04-10T00:29:30.757Z,8.87
2019-04-10T00:32:01.774Z,8.60
2019-04-10T00:34:29.751Z,7.67
2019-04-10T00:36:58.389Z,7.10
2019-04-10T00:39:27.093Z,7.47
2019-04-10T00:41:56.669Z,6.87
2019-04-10T00:44:25.825Z,7.03
2019-04-10T00:46:54.818Z,6.70
2019-04-10T00:49:23.951Z,7.13
2019-04-10T00:51:52.674Z,7.27
2019-04-10T00:54:21.722Z,6.57
2019-04-10T00:56:50.643Z,7.87
2019-04-10T00:59:19.934Z,7.17
2019-04-10T01:01:48.621Z,7.60
2019-04-10T01:04:18.172Z,7.40
2019-04-10T01:06:46.871Z,7.47
2019-04-10T01:09:15.512Z,7.33
2019-04-10T01:11:44.145Z,7.80
2019-04-10T01:14:13.690Z,7.60
2019-04-10T01:16:42.521Z,7.00
2019-04-10T01:19:12.012Z,7.77
2019-04-10T01:21:40.649Z,6.93
2019-04-10T01:24:09.259Z,7.97
2019-04-10T01:26:37.861Z,7.73
2019-04-10T01:29:06.582Z,7.93
2019-04-10T01:31:35.246Z,8.07
2019-04-10T01:34:05.242Z,9.60
2019-04-10T01:36:34.043Z,9.60
2019-04-10T01:39:02.660Z,9.73
2019-04-10T01:41:32.710Z,9.70
2019-04-10T01:44:01.520Z,9.83
2019-04-10T01:46:33.035Z,10.13
2019-04-10T01:49:01.602Z,9.27
2019-04-10T01:51:30.986Z,10.53
2019-04-10T01:54:00.595Z,10.40
2019-04-10T01:56:32.413Z,10.53
2019-04-10T01:58:59.515Z,10.23
2019-04-10T02:01:41.061Z,10.13
2019-04-10T02:04:09.647Z,10.87
2019-04-10T02:06:38.267Z,10.03
2019-04-10T02:09:09.362Z,11.83
2019-04-10T02:11:38.147Z,12.23
2019-04-10T02:14:07.751Z,11.70
2019-04-10T02:16:36.455Z,11.60
2019-04-10T02:19:06.002Z,11.23
2019-04-10T02:21:35.889Z,11.07
2019-04-10T02:24:05.045Z,11.70
2019-04-10T02:26:33.863Z,12.17
2019-04-10T02:29:03.709Z,11.63
2019-04-10T02:31:32.452Z,11.10
2019-04-10T02:34:01.599Z,11.23
2019-04-10T02:36:31.594Z,11.73
2019-04-10T02:39:12.187Z,12.57
2019-04-10T02:41:32.203Z,12.53
2019-04-10T02:44:02.674Z,12.07
2019-04-10T02:46:31.458Z,11.47
2019-04-10T02:49:00.291Z,11.70
2019-04-10T02:51:30.495Z,11.43
2019-04-10T02:54:00.420Z,12.20
2019-04-10T02:56:30.585Z,11.70
2019-04-10T02:58:59.469Z,12.00
2019-04-10T03:01:28.319Z,12.50
2019-04-10T03:03:56.913Z,12.33
2019-04-10T03:06:27.032Z,12.30
2019-04-10T03:09:12.022Z,11.13
2019-04-10T03:11:27.914Z,11.73
2019-04-10T03:13:56.688Z,11.43
2019-04-10T03:16:25.342Z,12.20
2019-04-10T03:18:54.833Z,10.97
2019-04-10T03:21:23.529Z,10.77
2019-04-10T03:23:52.281Z,11.43
2019-04-10T03:26:21.527Z,10.63
2019-04-10T03:28:50.146Z,10.57
2019-04-10T03:31:20.151Z,10.90
2019-04-10T03:34:01.093Z,10.53
2019-04-10T03:36:38.059Z,10.83
2019-04-10T03:39:08.986Z,11.13
2019-04-10T03:41:38.010Z,10.27
2019-04-10T03:44:06.619Z,10.07
2019-04-10T03:46:38.205Z,10.70
2019-04-10T03:49:05.528Z,10.13
2019-04-10T03:51:34.226Z,9.77
2019-04-10T03:54:02.816Z,9.00
2019-04-10T03:56:31.872Z,9.37
2019-04-10T03:59:00.556Z,8.83
2019-04-10T04:01:29.157Z,9.73
2019-04-10T04:03:57.806Z,9.30
2019-04-10T04:06:26.576Z,8.87
2019-04-10T04:09:03.300Z,9.87
2019-04-10T04:11:25.969Z,8.83
2019-04-10T04:13:55.543Z,8.50
2019-04-10T04:16:24.733Z,9.30
2019-04-10T04:18:53.422Z,9.57
2019-04-10T04:21:22.096Z,9.70
2019-04-10T04:23:51.082Z,9.07
2019-04-10T04:26:19.729Z,9.57
2019-04-10T04:28:49.361Z,9.47
2019-04-10T04:31:18.155Z,9.13
2019-04-10T04:33:46.904Z,8.90
2019-04-10T04:36:16.043Z,10.23
2019-04-10T04:38:45.250Z,10.43
2019-04-10T04:41:13.923Z,9.70
2019-04-10T04:43:44.691Z,9.83
2019-04-10T04:46:14.138Z,9.40
2019-04-10T04:48:43.340Z,9.93
2019-04-10T04:51:12.205Z,10.37
2019-04-10T04:53:41.810Z,10.33
2019-04-10T04:56:11.511Z,9.37
2019-04-10T04:58:40.226Z,9.83
2019-04-10T05:01:08.800Z,9.40
2019-04-10T05:03:37.570Z,9.50
2019-04-10T05:06:06.277Z,10.60
2019-04-10T05:08:34.863Z,9.60
2019-04-10T05:11:04.351Z,9.83
2019-04-10T05:13:33.003Z,9.80
2019-04-10T05:16:02.564Z,10.80
2019-04-10T05:18:31.729Z,10.60
2019-04-10T05:21:00.933Z,10.13
2019-04-10T05:23:29.611Z,9.50
2019-04-10T05:25:59.136Z,9.97
2019-04-10T05:28:28.489Z,9.67
2019-04-10T05:30:58.903Z,8.90
2019-04-10T05:33:27.627Z,9.90
2019-04-10T05:35:57.016Z,9.80
2019-04-10T05:38:26.766Z,8.90
2019-04-10T05:40:55.719Z,9.13
2019-04-10T05:43:24.355Z,8.93
2019-04-10T05:45:53.069Z,9.13
2019-04-10T05:48:23.484Z,9.37
2019-04-10T05:50:56.438Z,9.37
2019-04-10T05:53:22.564Z,9.57
2019-04-10T05:55:51.675Z,9.23
2019-04-10T05:58:21.630Z,9.30
2019-04-10T06:00:51.448Z,9.63
2019-04-10T06:03:20.718Z,9.60
2019-04-10T06:05:49.459Z,11.87
2019-04-10T06:08:18.180Z,9.57
2019-04-10T06:10:47.823Z,10.57
2019-04-10T06:13:17.168Z,9.20
2019-04-10T06:15:45.833Z,12.63
2019-04-10T06:18:15.294Z,9.63
2019-04-10T06:20:45.158Z,9.63
2019-04-10T06:23:14.943Z,10.60
2019-04-10T06:25:43.962Z,8.93
2019-04-10T06:28:12.959Z,9.80
2019-04-10T06:30:41.875Z,9.67
2019-04-10T06:33:11.640Z,10.10
2019-04-10T06:35:40.377Z,10.10
2019-04-10T06:38:09.067Z,9.97
2019-04-10T06:40:37.728Z,9.30
2019-04-10T06:43:06.638Z,9.40
2019-04-10T06:45:35.737Z,9.30
2019-04-10T06:48:04.753Z,9.77
2019-04-10T06:50:33.374Z,10.70
2019-04-10T06:53:01.967Z,9.13
2019-04-10T06:55:30.741Z,9.63
2019-04-10T06:57:59.719Z,8.70
2019-04-10T07:00:30.319Z,9.40
2019-04-10T07:02:59.347Z,10.10
2019-04-10T07:05:37.924Z,10.13
2019-04-10T07:08:10.001Z,9.80
2019-04-10T07:10:39.807Z,9.77
2019-04-10T07:12:59.658Z,9.10
2019-04-10T07:15:29.376Z,11.00
2019-04-10T07:17:58.859Z,10.47
2019-04-10T07:20:27.771Z,10.00
2019-04-10T07:22:56.989Z,10.83
2019-04-10T07:25:27.798Z,9.93
2019-04-10T07:27:56.512Z,10.67
2019-04-10T07:30:26.522Z,11.43
2019-04-10T07:32:55.572Z,11.37
2019-04-10T07:35:24.176Z,12.50
2019-04-10T07:37:56.002Z,11.43
2019-04-10T07:40:23.075Z,11.13
2019-04-10T07:42:52.509Z,13.23
2019-04-10T07:45:21.206Z,13.50
2019-04-10T07:47:49.831Z,14.03
2019-04-10T07:50:18.511Z,13.03
2019-04-10T07:52:47.877Z,12.97
2019-04-10T07:55:16.950Z,13.30
2019-04-10T07:57:47.725Z,12.40
2019-04-10T08:00:16.331Z,14.37
2019-04-10T08:02:44.928Z,16.03
2019-04-10T08:05:13.773Z,15.67
2019-04-10T08:07:43.090Z,14.73
2019-04-10T08:10:12.141Z,14.47
2019-04-10T08:12:47.665Z,14.70
2019-04-10T08:15:11.297Z,16.10
2019-04-10T08:17:41.001Z,16.17
2019-04-10T08:20:10.002Z,16.80
2019-04-10T08:22:39.329Z,15.13
2019-04-10T08:25:08.892Z,15.40
2019-04-10T08:27:38.433Z,16.87
2019-04-10T08:30:07.851Z,16.60
2019-04-10T08:32:51.228Z,16.07
2019-04-10T08:35:09.068Z,18.37
2019-04-10T08:37:38.909Z,14.57
2019-04-10T08:40:09.425Z,17.00
2019-04-10T08:42:40.173Z,16.87
2019-04-10T08:45:09.227Z,15.57
2019-04-10T08:47:37.945Z,15.93
2019-04-10T08:50:07.787Z,16.97
2019-04-10T08:52:37.071Z,16.80
2019-04-10T08:55:06.364Z,18.83
2019-04-10T08:57:36.132Z,19.77
2019-04-10T09:00:05.416Z,19.73
2019-04-10T09:02:34.022Z,21.90
2019-04-10T09:05:03.629Z,19.70
2019-04-10T09:07:32.501Z,18.93
2019-04-10T09:10:01.875Z,19.33
2019-04-10T09:12:31.647Z,20.20
2019-04-10T09:15:01.355Z,17.97
2019-04-10T09:17:31.250Z,20.10
2019-04-10T09:20:00.610Z,18.73
2019-04-10T09:22:41.878Z,19.60
2019-04-10T09:25:00.632Z,18.80
2019-04-10T09:27:29.416Z,17.43
2019-04-10T09:29:58.064Z,20.03
2019-04-10T09:32:26.669Z,18.37
2019-04-10T09:34:56.182Z,19.57
2019-04-10T09:37:26.051Z,19.07
2019-04-10T09:39:56.366Z,19.33
2019-04-10T09:42:25.622Z,18.83
2019-04-10T09:44:54.854Z,18.70
2019-04-10T09:47:23.537Z,21.07
2019-04-10T09:49:53.455Z,18.13
2019-04-10T09:52:22.205Z,17.50
2019-04-10T09:54:51.041Z,16.50
2019-04-10T09:57:20.126Z,17.17
2019-04-10T09:59:49.002Z,16.97
2019-04-10T10:02:17.705Z,17.37
2019-04-10T10:04:46.368Z,17.10
2019-04-10T10:07:14.983Z,18.13
2019-04-10T10:09:43.598Z,15.57
2019-04-10T10:12:12.230Z,16.37
2019-04-10T10:14:40.832Z,16.83
2019-04-10T10:17:10.563Z,15.70
2019-04-10T10:19:40.629Z,15.90
2019-04-10T10:22:09.414Z,16.20
2019-04-10T10:24:38.530Z,17.50
2019-04-10T10:27:07.405Z,16.07
2019-04-10T10:29:36.315Z,15.70
2019-04-10T10:32:04.907Z,15.20
2019-04-10T10:34:34.512Z,17.00
2019-04-10T10:37:03.928Z,17.13
2019-04-10T10:39:32.752Z,16.60
2019-04-10T10:42:01.606Z,14.90
2019-04-10T10:44:30.227Z,15.13
2019-04-10T10:46:59.955Z,14.17
2019-04-10T10:49:28.699Z,15.47
2019-04-10T10:51:57.389Z,14.37
2019-04-10T10:54:26.812Z,14.40
2019-04-10T10:56:56.520Z,12.57
2019-04-10T10:59:25.270Z,14.30
2019-04-10T11:01:53.956Z,12.33
2019-04-10T11:04:23.241Z,13.70
2019-04-10T11:06:59.333Z,13.40
2019-04-10T11:09:22.315Z,13.23
2019-04-10T11:11:51.179Z,12.87
2019-04-10T11:14:19.834Z,12.13
2019-04-10T11:16:49.469Z,11.87
2019-04-10T11:19:19.707Z,10.90
2019-04-10T11:21:49.649Z,10.37
2019-04-10T11:24:19.587Z,10.23
2019-04-10T11:26:50.233Z,11.20
2019-04-10T11:29:19.361Z,9.90
2019-04-10T11:31:49.252Z,10.60
2019-04-10T11:34:18.162Z,11.10
2019-04-10T11:36:48.263Z,10.37
2019-04-10T11:39:23.368Z,10.90
2019-04-10T11:41:49.088Z,11.53
2019-04-10T11:44:20.325Z,10.97
2019-04-10T11:46:49.436Z,10.73
2019-04-10T11:49:20.193Z,10.20
2019-04-10T11:51:50.858Z,10.67
2019-04-10T11:54:23.519Z,10.97
2019-04-10T11:56:52.579Z,10.10
2019-04-10T11:59:21.968Z,9.83
2019-04-10T12:01:53.071Z,10.23
2019-04-10T12:04:20.209Z,10.70
2019-04-10T12:06:52.264Z,10.23
2019-04-10T12:10:06.497Z,9.93
2019-04-10T12:11:49.617Z,10.10
2019-04-10T12:14:19.348Z,10.30
2019-04-10T12:16:48.108Z,9.50
2019-04-10T12:19:17.359Z,8.93
2019-04-10T12:21:47.249Z,9.10
2019-04-10T12:24:16.216Z,9.10
2019-04-10T12:26:44.848Z,9.33
2019-04-10T12:29:14.116Z,9.23
2019-04-10T12:31:43.930Z,8.30
2019-04-10T12:34:14.858Z,9.43
2019-04-10T12:36:42.931Z,9.93
2019-04-10T12:39:12.060Z,9.27
2019-04-10T12:41:41.624Z,8.33
2019-04-10T12:44:10.298Z,7.67
2019-04-10T12:46:39.432Z,7.73
2019-04-10T12:49:09.477Z,8.60
2019-04-10T12:51:38.306Z,8.77
2019-04-10T12:54:07.807Z,8.70
2019-04-10T12:56:36.556Z,7.27
2019-04-10T12:59:05.252Z,7.40
2019-04-10T13:01:33.848Z,8.50
2019-04-10T13:04:03.411Z,7.80
2019-04-10T13:06:32.106Z,8.73
2019-04-10T13:09:08.741Z,8.37
2019-04-10T13:11:32.171Z,8.53
2019-04-10T13:14:00.863Z,7.87
2019-04-10T13:16:29.474Z,7.53
2019-04-10T13:18:58.067Z,9.47
2019-04-10T13:21:26.642Z,7.70
2019-04-10T13:23:55.448Z,8.00
2019-04-10T13:26:24.315Z,7.17
2019-04-10T13:28:53.899Z,7.20
2019-04-10T13:31:23.461Z,8.63
2019-04-10T13:33:53.030Z,8.20
2019-04-10T13:36:21.816Z,8.27
2019-04-10T13:38:50.617Z,7.90
2019-04-10T13:41:19.298Z,8.40
2019-04-10T13:43:47.884Z,7.73
2019-04-10T13:46:16.525Z,7.83
2019-04-10T13:48:45.220Z,7.83
2019-04-10T13:51:14.961Z,8.00
2019-04-10T13:53:43.717Z,6.97
2019-04-10T13:56:12.852Z,6.97
2019-04-10T13:58:42.599Z,7.17
2019-04-10T14:01:15.478Z,6.50
2019-04-10T14:03:45.141Z,6.43
2019-04-10T14:06:13.754Z,7.47
2019-04-10T14:09:03.555Z,6.67
2019-04-10T14:11:13.176Z,7.27
2019-04-10T14:13:42.134Z,7.77
2019-04-10T14:16:11.140Z,7.37
2019-04-10T14:18:39.703Z,7.87
2019-04-10T14:21:12.903Z,6.97
2019-04-10T14:23:39.547Z,6.50
2019-04-10T14:26:42.209Z,6.90
2019-04-10T14:29:07.230Z,7.23
2019-04-10T14:31:39.005Z,6.93
2019-04-10T14:34:07.866Z,6.57
2019-04-10T14:36:36.463Z,7.30
2019-04-10T14:39:13.568Z,7.17
2019-04-10T14:41:38.356Z,8.30
2019-04-10T14:44:08.211Z,7.07
2019-04-10T14:46:38.074Z,7.13
2019-04-10T14:49:06.984Z,7.40
2019-04-10T14:51:36.676Z,7.83
2019-04-10T14:54:05.869Z,8.00
2019-04-10T14:56:34.586Z,7.57
2019-04-10T14:59:03.926Z,7.23
2019-04-10T15:01:33.560Z,7.27
2019-04-10T15:04:02.701Z,7.00
2019-04-10T15:06:31.346Z,7.40
2019-04-10T15:08:59.975Z,7.23
2019-04-10T15:11:28.890Z,7.13
2019-04-10T15:13:57.535Z,7.80
2019-04-10T15:16:27.249Z,7.07
2019-04-10T15:18:56.261Z,7.27
2019-04-10T15:21:25.067Z,7.27
2019-04-10T15:23:53.687Z,8.13
2019-04-10T15:26:22.389Z,7.27
2019-04-10T15:28:51.936Z,8.77
2019-04-10T15:31:21.535Z,8.87
2019-04-10T15:33:50.209Z,8.03
2019-04-10T15:36:19.913Z,8.67
2019-04-10T15:38:48.647Z,7.67
2019-04-10T15:41:17.263Z,7.53
2019-04-10T15:43:45.975Z,7.50
2019-04-10T15:46:14.977Z,8.23
2019-04-10T15:48:44.096Z,8.37
2019-04-10T15:51:14.092Z,9.27
2019-04-10T15:53:43.157Z,8.13
2019-04-10T15:56:11.935Z,8.83
2019-04-10T15:58:41.594Z,8.83
2019-04-10T16:01:15.778Z,8.03
2019-04-10T16:03:44.965Z,7.30
2019-04-10T16:06:13.558Z,6.90
2019-04-10T16:08:42.695Z,5.97
2019-04-10T16:11:39.377Z,5.80
2019-04-10T16:14:19.765Z,5.10
2019-04-10T16:17:06.914Z,5.10
2019-04-10T16:19:43.662Z,4.73
2019-04-10T16:22:26.259Z,4.40
2019-04-10T16:24:55.889Z,4.10
2019-04-10T16:27:24.618Z,3.80
2019-04-10T16:29:53.227Z,3.90
2019-04-10T16:32:23.089Z,3.90
2019-04-10T16:34:52.359Z,4.17
2019-04-10T16:37:22.112Z,3.80
2019-04-10T16:39:59.504Z,3.57
2019-04-10T16:42:22.230Z,3.80
2019-04-10T16:44:51.230Z,3.63
2019-04-10T16:47:19.979Z,3.53
2019-04-10T16:49:48.853Z,2.70
2019-04-10T16:52:17.481Z,3.13
2019-04-10T16:54:46.123Z,2.80
2019-04-10T16:57:14.777Z,2.60
2019-04-10T16:59:43.833Z,2.67
2019-04-10T17:02:12.518Z,3.00
2019-04-10T17:04:41.721Z,2.80
2019-04-10T17:07:10.615Z,2.93
2019-04-10T17:09:39.311Z,2.80
2019-04-10T17:12:07.940Z,2.70
2019-04-10T17:14:37.776Z,2.90
2019-04-10T17:17:06.546Z,3.30
2019-04-10T17:19:46.601Z,2.77
2019-04-10T17:22:06.764Z,3.50
2019-04-10T17:24:35.817Z,3.60
2019-04-10T17:27:05.034Z,3.70
2019-04-10T17:29:34.975Z,3.50
2019-04-10T17:32:04.629Z,3.70
2019-04-10T17:34:34.640Z,4.00
2019-04-10T17:37:03.432Z,4.00
2019-04-10T17:39:33.395Z,3.60
2019-04-10T17:42:02.461Z,4.70
2019-04-10T17:44:31.846Z,3.60
2019-04-10T17:47:01.817Z,3.80
2019-04-10T17:49:31.667Z,4.13
2019-04-10T17:52:02.495Z,4.10
2019-04-10T17:54:31.397Z,4.03
2019-04-10T17:57:00.387Z,3.57
2019-04-10T17:59:30.122Z,4.17
2019-04-10T18:02:01.207Z,4.30
2019-04-10T18:04:29.923Z,4.03
2019-04-10T18:06:59.561Z,3.77
2019-04-10T18:09:28.502Z,4.07
2019-04-10T18:11:59.412Z,4.90
2019-04-10T18:14:27.472Z,4.87
2019-04-10T18:16:56.327Z,4.80
2019-04-10T18:19:25.415Z,5.23
2019-04-10T18:21:54.290Z,5.60
2019-04-10T18:24:22.882Z,7.33
2019-04-10T18:26:53.676Z,9.17
2019-04-10T18:29:23.046Z,13.20
2019-04-10T18:31:52.184Z,13.57
2019-04-10T18:34:21.524Z,17.57
2019-04-10T18:36:51.105Z,22.47
2019-04-10T18:39:20.018Z,29.13
2019-04-10T18:41:48.712Z,28.83
2019-04-10T18:44:17.302Z,35.17
2019-04-10T18:46:46.746Z,32.20
2019-04-10T18:49:15.672Z,32.73
2019-04-10T18:51:44.373Z,34.97
2019-04-10T18:54:12.988Z,35.00
2019-04-10T18:56:41.604Z,35.10
2019-04-10T18:59:32.393Z,33.13
2019-04-10T19:02:39.078Z,33.90
2019-04-10T19:05:21.370Z,34.30
2019-04-10T19:07:50.295Z,33.87
2019-04-10T19:10:19.871Z,36.00
2019-04-10T19:12:48.802Z,33.97
2019-04-10T19:15:17.538Z,33.83
2019-04-10T19:17:46.831Z,31.50
2019-04-10T19:20:15.759Z,31.73
2019-04-10T19:22:44.689Z,31.20
2019-04-10T19:25:14.564Z,31.63
2019-04-10T19:27:44.365Z,30.57
2019-04-10T19:30:35.363Z,30.53
2019-04-10T19:33:04.450Z,29.17
2019-04-10T19:35:33.131Z,28.23
2019-04-10T19:38:03.012Z,30.97
2019-04-10T19:40:32.035Z,31.40
2019-04-10T19:43:01.848Z,33.73
2019-04-10T19:45:32.081Z,33.97
2019-04-10T19:48:01.140Z,34.13
2019-04-10T19:50:30.090Z,35.57
2019-04-10T19:52:58.728Z,35.33
2019-04-10T19:55:27.550Z,35.57
2019-04-10T19:57:57.408Z,34.60
2019-04-10T20:00:30.571Z,34.90
2019-04-10T20:02:59.472Z,36.23
2019-04-10T20:05:29.546Z,34.10
2019-04-10T20:07:59.529Z,35.00
2019-04-10T20:10:28.268Z,34.67
2019-04-10T20:12:57.256Z,36.47
2019-04-10T20:15:26.715Z,37.23
2019-04-10T20:17:56.612Z,37.87
2019-04-10T20:20:25.305Z,36.20
2019-04-10T20:22:53.910Z,39.87
2019-04-10T20:25:22.525Z,35.87
2019-04-10T20:27:52.132Z,36.03
2019-04-10T20:30:23.626Z,37.10
2019-04-10T20:32:52.445Z,38.87
2019-04-10T20:35:22.313Z,38.17
2019-04-10T20:37:51.225Z,39.33
2019-04-10T20:40:20.749Z,40.60
2019-04-10T20:42:50.755Z,42.93
2019-04-10T20:45:19.709Z,41.47
2019-04-10T20:47:48.300Z,41.67
2019-04-10T20:50:17.540Z,41.70
2019-04-10T20:52:47.253Z,39.30
2019-04-10T20:55:15.972Z,40.83
2019-04-10T20:57:45.646Z,42.37
2019-04-10T21:00:20.847Z,42.50
2019-04-10T21:02:49.488Z,45.83
2019-04-10T21:05:18.112Z,45.37
2019-04-10T21:07:48.023Z,45.50
2019-04-10T21:10:17.133Z,50.77
2019-04-10T21:12:45.773Z,46.23
2019-04-10T21:15:14.355Z,47.67
2019-04-10T21:17:43.010Z,46.87
2019-04-10T21:20:13.224Z,50.10
2019-04-10T21:22:42.029Z,49.87
2019-04-10T21:25:10.653Z,47.70
2019-04-10T21:27:39.739Z,49.93
2019-04-10T21:30:26.386Z,52.80
2019-04-10T21:33:01.440Z,51.20
2019-04-10T21:35:34.978Z,59.27
2019-04-10T21:38:04.769Z,55.27
2019-04-10T21:40:34.737Z,58.10
2019-04-10T21:43:03.737Z,56.20
2019-04-10T21:45:32.798Z,58.53
2019-04-10T21:48:02.133Z,59.50
2019-04-10T21:50:30.835Z,61.10
2019-04-10T21:53:01.203Z,60.57
2019-04-10T21:55:29.829Z,61.27
2019-04-10T21:57:59.502Z,60.40
2019-04-10T22:00:49.044Z,63.53
2019-04-10T22:03:18.907Z,65.83
2019-04-10T22:05:49.819Z,62.23
2019-04-10T22:08:27.687Z,65.27
2019-04-10T22:10:57.314Z,63.80
2019-04-10T22:13:26.198Z,67.63
2019-04-10T22:15:55.438Z,65.90
2019-04-10T22:18:25.235Z,64.20
2019-04-10T22:20:54.166Z,67.40
2019-04-10T22:23:22.826Z,65.30
2019-04-10T22:25:52.216Z,69.97
2019-04-10T22:28:21.131Z,66.23
2019-04-10T22:30:50.598Z,66.03
2019-04-10T22:33:20.229Z,66.63
2019-04-10T22:35:48.937Z,65.40
2019-04-10T22:38:17.547Z,67.80
2019-04-10T22:40:46.366Z,66.33
2019-04-10T22:43:15.911Z,69.80
2019-04-10T22:45:44.797Z,69.17
2019-04-10T22:48:14.603Z,70.67
2019-04-10T22:50:43.265Z,69.07
2019-04-10T22:53:12.970Z,74.20
2019-04-10T22:55:42.365Z,68.67
2019-04-10T22:58:10.982Z,72.93
2019-04-10T23:00:39.805Z,69.80
2019-04-10T23:03:08.522Z,67.37
2019-04-10T23:05:37.110Z,74.37
2019-04-10T23:08:05.868Z,68.57
2019-04-10T23:10:35.263Z,68.57
2019-04-10T23:13:05.597Z,69.10
2019-04-10T23:15:35.573Z,67.03
2019-04-10T23:18:05.403Z,65.90
2019-04-10T23:20:34.185Z,66.97
2019-04-10T23:23:03.127Z,63.70
2019-04-10T23:25:32.141Z,67.33
2019-04-10T23:28:01.093Z,64.60
2019-04-10T23:30:29.797Z,67.87
